createdAt,value
2022-10-23T00:08:42.598Z,3.224
2022-10-23T00:24:24.708Z,3.224
2022-10-23T00:40:07.315Z,3.223
2022-10-23T00:55:50.151Z,3.224
2022-10-23T01:11:32.550Z,3.224
2022-10-23T01:27:15.282Z,3.224
2022-10-23T01:42:57.374Z,3.223
2022-10-23T01:58:39.920Z,3.223
2022-10-23T02:14:22.433Z,3.223
2022-10-23T02:30:05.139Z,3.224
2022-10-23T02:45:47.348Z,3.224
2022-10-23T03:01:29.594Z,3.223
2022-10-23T03:17:12.473Z,3.224
2022-10-23T03:32:54.541Z,3.223
2022-10-23T03:48:36.714Z,3.223
2022-10-23T04:04:19.713Z,3.221
2022-10-23T04:20:02.267Z,3.221
2022-10-23T04:35:44.640Z,3.22
2022-10-23T04:51:27.199Z,3.22
2022-10-23T05:07:09.887Z,3.22
2022-10-23T05:22:52.227Z,3.22
2022-10-23T05:38:34.371Z,3.218
2022-10-23T05:54:17.108Z,3.218
2022-10-23T06:09:59.719Z,3.22
2022-10-23T06:25:42.763Z,3.22
2022-10-23T06:41:25.737Z,3.223
2022-10-23T06:57:08.371Z,3.221
2022-10-23T07:12:51.295Z,3.223
2022-10-23T07:28:34.006Z,3.223
2022-10-23T07:44:16.666Z,3.225
2022-10-23T07:59:58.667Z,3.231
2022-10-23T08:15:40.937Z,3.234
2022-10-23T08:31:23.880Z,3.228
2022-10-23T08:47:06.078Z,3.231
2022-10-23T09:02:48.702Z,3.234
2022-10-23T09:18:30.819Z,3.235
2022-10-23T09:34:13.741Z,3.236
2022-10-23T09:49:55.672Z,3.238
2022-10-23T10:05:37.859Z,3.249
2022-10-23T10:21:20.157Z,3.249
2022-10-23T10:37:02.088Z,3.247
2022-10-23T10:52:44.124Z,3.254
2022-10-23T11:08:26.868Z,3.272
2022-10-23T11:24:08.950Z,3.328
2022-10-23T11:39:51.398Z,3.308
2022-10-23T11:55:33.607Z,3.296
2022-10-23T12:11:15.595Z,3.289
2022-10-23T12:26:57.939Z,3.281
2022-10-23T12:42:40.698Z,3.272
2022-10-23T12:58:23.569Z,3.267
2022-10-23T13:14:06.313Z,3.261
2022-10-23T13:14:53.537Z,3.253
2022-10-23T13:30:36.254Z,3.252
2022-10-23T13:46:19.202Z,3.247
2022-10-23T14:02:02.100Z,3.243
2022-10-23T14:17:44.542Z,3.241
2022-10-23T14:33:27.302Z,3.238
2022-10-23T14:49:09.427Z,3.236
2022-10-23T15:04:51.588Z,3.234
2022-10-23T15:20:34.252Z,3.232
2022-10-23T15:36:17.213Z,3.232
2022-10-23T15:51:59.431Z,3.229
2022-10-23T16:07:42.175Z,3.227
2022-10-23T16:23:24.272Z,3.227
2022-10-23T16:39:06.960Z,3.228
2022-10-23T16:54:49.537Z,3.225
2022-10-23T17:10:31.873Z,3.225
2022-10-23T17:26:13.913Z,3.223
2022-10-23T17:41:56.455Z,3.223
2022-10-23T17:57:39.454Z,3.223
2022-10-23T18:13:22.388Z,3.214
2022-10-23T18:29:04.811Z,3.221
2022-10-23T18:44:47.644Z,3.223
2022-10-23T19:00:30.309Z,3.213
2022-10-23T19:16:13.183Z,3.213
2022-10-23T19:31:55.649Z,3.213
2022-10-23T19:47:38.132Z,3.212
2022-10-23T20:03:20.237Z,3.213
2022-10-23T20:19:03.006Z,3.213
2022-10-23T20:34:45.432Z,3.213
2022-10-23T20:50:28.390Z,3.212
2022-10-23T21:06:11.261Z,3.213
2022-10-23T21:21:54.092Z,3.213
2022-10-23T21:37:36.557Z,3.213
2022-10-23T21:53:18.724Z,3.213
2022-10-23T22:09:01.533Z,3.213
2022-10-23T22:24:44.498Z,3.213
2022-10-23T22:40:26.842Z,3.213
2022-10-23T22:56:08.998Z,3.213
2022-10-23T23:11:51.350Z,3.22
2022-10-23T23:27:33.948Z,3.221
2022-10-23T23:43:16.602Z,3.225
2022-10-23T23:58:59.464Z,3.225
